Time;durP1;ratioP1;P1;durP2;ratioP2;P2;SDS_P1;SDS_P2;PMS_P1;PMS_P2;Temp;Humidity;BMP_temperature;BMP_pressure;BME280_temperature;BME280_humidity;BME280_pressure;Samples;Min_cycle;Max_cycle;Signal;HPM_P1;HPM_P2
2022/08/24 00:02:17;;;;;;;20.10;13.88;;;20.90;99.90;;;;;;5071932;28;20079;-70
2022/08/24 00:04:43;;;;;;;17.17;11.88;;;21.70;99.90;;;;;;5071232;28;20072;-70
2022/08/24 00:07:09;;;;;;;21.67;14.32;;;22.00;99.90;;;;;;5055220;28;20401;-69
2022/08/24 00:09:35;;;;;;;21.70;13.35;;;20.70;99.90;;;;;;5071425;28;20051;-70
2022/08/24 00:12:04;;;;;;;20.92;12.98;;;20.50;99.90;;;;;;5071835;28;20401;-69
2022/08/24 00:14:30;;;;;;;20.70;13.38;;;20.50;99.90;;;;;;5071211;28;20041;-69
2022/08/24 00:16:56;;;;;;;20.38;14.18;;;20.60;99.90;;;;;;5071399;28;20090;-70
2022/08/24 00:19:22;;;;;;;15.90;12.52;;;20.50;99.90;;;;;;5071604;28;20123;-70
2022/08/24 00:21:48;;;;;;;17.00;13.15;;;20.30;99.90;;;;;;5071219;28;20526;-69
2022/08/24 00:24:14;;;;;;;19.00;13.85;;;20.40;99.90;;;;;;5070816;28;20043;-70
2022/08/24 00:26:39;;;;;;;15.23;12.52;;;20.40;99.90;;;;;;5071376;28;20032;-69
2022/08/24 00:29:05;;;;;;;17.75;13.02;;;20.40;99.90;;;;;;5054505;28;20529;-69
2022/08/24 00:31:31;;;;;;;17.75;13.80;;;21.30;99.90;;;;;;5072256;28;20464;-69
2022/08/24 00:33:57;;;;;;;14.07;12.52;;;21.70;99.90;;;;;;5070791;28;20123;-69
2022/08/24 00:36:23;;;;;;;17.65;11.60;;;20.40;99.90;;;;;;5072341;28;20044;-69
2022/08/24 00:38:49;;;;;;;15.82;11.43;;;20.10;99.90;;;;;;5070949;28;20136;-70
2022/08/24 00:41:15;;;;;;;15.20;13.02;;;20.30;99.90;;;;;;5072188;28;20538;-69
2022/08/24 00:43:56;;;;;;;16.40;13.07;;;20.20;99.90;;;;;;5070726;28;20398;-70
2022/08/24 00:46:42;;;;;;;16.15;12.07;;;19.90;99.90;;;;;;5070830;28;20557;-69
2022/08/24 00:49:18;;;;;;;20.83;12.98;;;20.10;99.90;;;;;;5072058;28;20037;-69
2022/08/24 00:52:16;;;;;;;18.10;12.75;;;20.20;99.90;;;;;;5070750;28;20040;-69
2022/08/24 00:54:47;;;;;;;18.95;12.52;;;20.10;99.90;;;;;;5069003;28;20057;-69
2022/08/24 00:57:17;;;;;;;16.02;12.05;;;20.10;99.90;;;;;;5071439;28;20044;-69
2022/08/24 00:59:51;;;;;;;15.88;11.27;;;20.20;99.90;;;;;;5070629;28;20044;-69
2022/08/24 01:02:23;;;;;;;16.48;11.68;;;20.00;99.90;;;;;;5072239;28;20072;-70
2022/08/24 01:04:55;;;;;;;;;;;20.00;99.90;;;;;;5072312;28;20425;-69
2022/08/24 01:07:23;;;;;;;16.50;11.73;;;20.00;99.90;;;;;;5071939;28;19917;-70
2022/08/24 01:09:59;;;;;;;17.50;12.68;;;20.80;99.90;;;;;;5070737;28;20036;-69
2022/08/24 01:12:27;;;;;;;13.57;11.77;;;19.90;99.90;;;;;;5070826;28;20032;-70
2022/08/24 01:14:55;;;;;;;17.63;12.95;;;20.10;99.90;;;;;;5053542;28;20033;-70
2022/08/24 01:20:06;;;;;;;20.58;14.80;;;20.10;99.90;;;;;;5070331;28;20076;-69
2022/08/24 01:23:06;;;;;;;16.98;14.13;;;19.80;99.90;;;;;;5071478;28;20085;-69
2022/08/24 01:25:33;;;;;;;18.58;15.02;;;19.90;99.90;;;;;;5070140;28;20033;-70
2022/08/24 01:28:05;;;;;;;20.00;14.02;;;19.90;99.90;;;;;;5071567;28;20444;-69
2022/08/24 01:30:31;;;;;;;18.25;14.35;;;19.70;99.90;;;;;;5053214;28;20040;-70
2022/08/24 01:33:00;;;;;;;17.85;13.55;;;19.90;99.90;;;;;;5069777;28;20196;-70
2022/08/24 01:35:27;;;;;;;17.90;13.90;;;20.40;99.90;;;;;;5053219;28;20371;-70
2022/08/24 01:37:55;;;;;;;17.25;14.45;;;19.70;99.90;;;;;;5070204;28;20144;-70
2022/08/24 01:40:28;;;;;;;18.92;14.15;;;19.70;99.90;;;;;;5071589;28;20045;-69
2022/08/24 01:42:54;;;;;;;17.63;14.27;;;19.60;99.90;;;;;;5069797;28;20460;-69
2022/08/24 01:45:19;;;;;;;18.95;15.07;;;20.10;99.90;;;;;;5069250;28;20037;-69
2022/08/24 01:47:45;;;;;;;21.77;16.48;;;19.60;99.90;;;;;;5069611;28;20051;-70
2022/08/24 01:50:11;;;;;;;21.88;17.88;;;20.20;99.90;;;;;;5070078;28;20052;-69
2022/08/24 01:52:39;;;;;;;23.73;16.08;;;19.50;99.90;;;;;;5070109;28;20075;-70
2022/08/24 01:55:11;;;;;;;21.80;17.33;;;19.50;99.90;;;;;;5070186;28;20068;-69
2022/08/24 01:57:36;;;;;;;18.67;16.50;;;19.50;99.90;;;;;;5070216;28;20505;-70
2022/08/24 02:00:07;;;;;;;17.92;14.95;;;19.40;99.90;;;;;;5069947;28;20048;-69
2022/08/24 02:02:32;;;;;;;23.08;16.02;;;19.50;99.90;;;;;;5071398;28;20116;-69
2022/08/24 02:04:58;;;;;;;21.33;17.17;;;19.40;99.90;;;;;;5070484;28;20075;-69
2022/08/24 02:07:24;;;;;;;22.70;17.88;;;19.50;99.90;;;;;;5074003;28;20036;-69
2022/08/24 02:09:50;;;;;;;24.08;16.77;;;19.40;99.90;;;;;;5075219;28;20037;-69
2022/08/24 02:12:16;;;;;;;21.38;18.00;;;19.40;99.90;;;;;;5074913;28;20094;-70
2022/08/24 02:14:43;;;;;;;21.13;16.95;;;19.80;99.90;;;;;;5088233;22;20418;-71
2022/08/24 02:17:08;;;;;;;21.83;16.33;;;20.00;99.90;;;;;;5036318;28;20036;-74
2022/08/24 02:19:35;;;;;;;20.10;16.75;;;19.40;99.90;;;;;;5055130;28;20037;-74
2022/08/24 02:22:01;;;;;;;20.77;16.95;;;19.50;99.90;;;;;;5054769;28;20033;-71
2022/08/24 02:24:28;;;;;;;23.00;17.73;;;19.40;99.90;;;;;;5054607;28;20064;-71
2022/08/24 02:26:54;;;;;;;26.02;18.45;;;19.40;99.90;;;;;;5053589;28;20048;-72
2022/08/24 02:29:20;;;;;;;22.85;19.23;;;19.30;99.90;;;;;;5053755;28;20048;-74
2022/08/24 02:31:46;;;;;;;21.42;18.08;;;20.20;99.90;;;;;;5054829;28;20037;-74
2022/08/24 02:34:12;;;;;;;22.98;19.88;;;19.40;99.90;;;;;;5053346;28;20044;-74
2022/08/24 02:36:38;;;;;;;26.45;18.92;;;19.30;99.90;;;;;;5054812;28;20037;-73
2022/08/24 02:39:05;;;;;;;27.70;19.95;;;19.80;99.90;;;;;;5053273;28;20079;-74
2022/08/24 02:41:31;;;;;;;34.63;24.35;;;19.20;99.90;;;;;;5053408;28;20041;-74
2022/08/24 02:43:57;;;;;;;29.10;23.27;;;19.30;99.90;;;;;;5054651;28;20044;-72
2022/08/24 02:46:27;;;;;;;31.08;21.88;;;19.90;99.90;;;;;;5054429;28;20180;-73
2022/08/24 02:48:53;;;;;;;26.75;20.60;;;19.30;99.90;;;;;;5053085;28;20072;-74
2022/08/24 02:51:27;;;;;;;30.02;22.05;;;19.20;99.90;;;;;;5036306;28;20045;-71
2022/08/24 02:53:53;;;;;;;25.58;21.08;;;19.00;99.90;;;;;;5054166;28;20041;-71
2022/08/24 02:56:20;;;;;;;27.58;22.67;;;19.10;99.90;;;;;;5053305;28;20036;-71
2022/08/24 02:58:46;;;;;;;27.75;22.48;;;19.30;99.90;;;;;;5052987;28;20052;-74
2022/08/24 03:01:12;;;;;;;27.95;21.70;;;19.30;99.90;;;;;;5036283;28;20507;-74
2022/08/24 03:03:38;;;;;;;33.17;23.30;;;19.90;99.90;;;;;;5054556;28;20116;-74
2022/08/24 03:06:05;;;;;;;26.60;22.25;;;19.40;99.90;;;;;;5052241;28;20041;-74
2022/08/24 03:08:30;;;;;;;30.90;23.80;;;19.00;99.90;;;;;;5054251;28;20037;-74
2022/08/24 03:10:57;;;;;;;26.38;21.35;;;19.60;99.90;;;;;;5054136;28;20045;-74
2022/08/24 03:13:23;;;;;;;28.17;22.00;;;18.90;99.90;;;;;;5054099;28;20047;-74
2022/08/24 03:15:49;;;;;;;26.48;21.83;;;19.50;99.90;;;;;;5035583;28;20477;-74
2022/08/24 03:18:14;;;;;;;25.98;22.20;;;20.40;99.90;;;;;;5051725;28;20041;-72
2022/08/24 03:20:40;;;;;;;28.95;23.95;;;20.20;99.90;;;;;;5052501;28;20115;-74
2022/08/24 03:23:06;;;;;;;29.30;23.60;;;19.10;99.90;;;;;;5052235;28;20041;-74
2022/08/24 03:25:31;;;;;;;29.52;22.65;;;19.40;99.90;;;;;;5052143;28;20064;-74
2022/08/24 03:27:57;;;;;;;27.08;22.90;;;18.90;99.90;;;;;;5053825;28;20037;-74
2022/08/24 03:30:23;;;;;;;26.60;21.70;;;18.90;99.90;;;;;;5052794;28;20228;-75
2022/08/24 03:32:49;;;;;;;30.60;23.02;;;19.10;99.90;;;;;;5052461;28;20037;-73
2022/08/24 03:35:17;;;;;;;26.92;22.80;;;19.80;99.90;;;;;;5052022;28;20079;-74
2022/08/24 03:37:43;;;;;;;27.50;21.60;;;19.00;99.90;;;;;;5058032;28;20147;-74
2022/08/24 03:40:10;;;;;;;28.08;22.50;;;20.20;99.90;;;;;;5074345;28;20087;-74
2022/08/24 03:42:36;;;;;;;28.05;22.25;;;18.90;99.90;;;;;;5075896;28;20089;-74
2022/08/24 03:45:03;;;;;;;27.30;22.17;;;20.00;99.90;;;;;;5060025;28;20072;-75
2022/08/24 03:47:28;;;;;;;27.90;21.45;;;18.70;99.90;;;;;;5066766;28;20069;-73
2022/08/24 03:49:55;;;;;;;30.35;21.67;;;18.80;99.90;;;;;;5054897;28;20047;-74
2022/08/24 03:52:20;;;;;;;24.38;20.15;;;19.40;99.90;;;;;;5053501;28;20116;-73
2022/08/24 03:54:46;;;;;;;28.00;20.83;;;18.90;99.90;;;;;;5052705;28;20075;-74
2022/08/24 03:57:13;;;;;;;26.40;20.38;;;19.00;99.90;;;;;;5053214;28;20059;-74
2022/08/24 03:59:38;;;;;;;27.27;20.05;;;18.80;99.90;;;;;;5053999;28;20510;-72
2022/08/24 04:02:04;;;;;;;24.02;19.90;;;20.50;99.90;;;;;;5056326;28;20049;-74
2022/08/24 04:04:30;;;;;;;25.95;20.13;;;18.60;99.90;;;;;;5051382;28;20036;-74
2022/08/24 04:06:56;;;;;;;28.45;19.83;;;18.50;99.90;;;;;;5059065;28;20045;-74
2022/08/24 04:09:22;;;;;;;23.10;18.90;;;20.20;99.90;;;;;;5035813;28;20033;-73
2022/08/24 04:11:48;;;;;;;24.20;20.15;;;18.60;99.90;;;;;;5053372;28;20041;-74
2022/08/24 04:14:15;;;;;;;25.33;19.63;;;18.50;99.90;;;;;;5052472;28;20048;-73
2022/08/24 04:16:41;;;;;;;26.15;20.23;;;19.10;99.90;;;;;;5051777;28;20060;-74
2022/08/24 04:19:07;;;;;;;23.92;19.80;;;18.70;99.90;;;;;;5052076;28;20036;-74
2022/08/24 04:21:35;;;;;;;25.35;18.92;;;19.90;99.90;;;;;;5052459;28;20543;-74
2022/08/24 04:24:03;;;;;;;25.38;19.25;;;18.60;99.90;;;;;;5051316;28;20037;-73
2022/08/24 04:26:30;;;;;;;24.77;19.23;;;19.20;99.90;;;;;;5051396;28;20082;-74
2022/08/24 04:28:56;;;;;;;27.55;19.83;;;18.40;99.90;;;;;;5051543;28;20592;-74
2022/08/24 04:31:23;;;;;;;23.50;19.10;;;18.50;99.90;;;;;;5034676;28;20045;-74
2022/08/24 04:33:50;;;;;;;23.92;18.25;;;19.30;99.90;;;;;;5050717;28;20056;-74
2022/08/24 04:36:17;;;;;;;21.58;18.80;;;18.60;99.90;;;;;;5051083;28;20103;-74
2022/08/24 04:38:43;;;;;;;27.02;19.52;;;18.40;99.90;;;;;;5052470;28;20037;-74
2022/08/24 04:41:13;;;;;;;24.60;20.15;;;19.30;99.90;;;;;;5034361;28;20052;-73
2022/08/24 04:43:43;;;;;;;22.58;19.02;;;18.40;99.90;;;;;;5052262;28;20040;-73
2022/08/24 04:46:13;;;;;;;27.67;19.45;;;18.80;99.90;;;;;;5051045;28;20524;-73
2022/08/24 04:48:40;;;;;;;22.42;18.63;;;18.50;99.90;;;;;;5052529;28;20124;-72
2022/08/24 04:51:07;;;;;;;23.15;19.98;;;18.60;99.90;;;;;;5052187;28;20080;-72
2022/08/24 04:53:34;;;;;;;24.55;20.00;;;18.30;99.90;;;;;;5050989;28;20060;-72
2022/08/24 04:56:00;;;;;;;24.15;19.95;;;19.10;99.90;;;;;;5051814;28;20062;-72
2022/08/24 04:58:28;;;;;;;25.85;21.00;;;18.90;99.90;;;;;;5053278;28;20045;-72
2022/08/24 05:00:54;;;;;;;23.48;19.80;;;18.50;99.90;;;;;;5050829;28;20068;-72
2022/08/24 05:03:21;;;;;;;25.73;21.08;;;18.30;99.90;;;;;;5050885;28;20044;-72
2022/08/24 05:05:49;;;;;;;26.38;20.83;;;18.90;99.90;;;;;;5050511;28;20040;-72
2022/08/24 05:08:16;;;;;;;27.60;21.50;;;18.40;99.90;;;;;;5050880;28;20068;-72
2022/08/24 05:10:44;;;;;;;24.55;20.63;;;19.20;99.90;;;;;;5051139;28;20048;-73
2022/08/24 05:13:10;;;;;;;25.40;21.77;;;19.70;99.90;;;;;;5050485;28;20124;-73
2022/08/24 05:15:40;;;;;;;24.75;20.40;;;18.50;99.90;;;;;;5049992;28;20140;-73
2022/08/24 05:18:06;;;;;;;27.95;21.67;;;18.50;99.90;;;;;;5051816;28;20561;-73
2022/08/24 05:20:34;;;;;;;26.60;22.35;;;19.40;99.90;;;;;;5050751;28;20033;-73
2022/08/24 05:23:00;;;;;;;30.98;22.70;;;18.50;99.90;;;;;;5051737;28;20448;-73
2022/08/24 05:25:26;;;;;;;30.25;22.85;;;18.20;99.90;;;;;;5049794;28;20041;-73
2022/08/24 05:27:51;;;;;;;30.02;23.90;;;18.60;99.90;;;;;;5051816;28;20115;-73
2022/08/24 05:30:17;;;;;;;33.75;26.30;;;18.60;99.90;;;;;;5050482;28;20120;-73
2022/08/24 05:32:42;;;;;;;30.05;24.33;;;18.50;99.90;;;;;;5051803;28;20495;-73
2022/08/24 05:35:08;;;;;;;34.33;26.52;;;19.30;99.90;;;;;;5050117;28;20087;-73
2022/08/24 05:37:38;;;;;;;30.83;24.10;;;18.50;99.90;;;;;;5051835;28;20045;-73
2022/08/24 05:40:07;;;;;;;37.78;26.55;;;18.70;99.90;;;;;;5050884;28;20044;-73
2022/08/24 05:42:32;;;;;;;32.78;25.92;;;18.80;99.90;;;;;;5054466;28;20044;-73
2022/08/24 05:44:58;;;;;;;32.38;24.38;;;18.90;99.90;;;;;;5053907;28;20036;-73
2022/08/24 05:47:24;;;;;;;33.35;25.55;;;19.00;99.90;;;;;;5054421;28;20056;-74
2022/08/24 05:49:52;;;;;;;32.10;26.65;;;19.10;99.90;;;;;;5054980;28;20039;-73
2022/08/24 05:52:21;;;;;;;27.85;23.23;;;19.00;99.90;;;;;;5054549;28;20049;-73
2022/08/24 05:54:56;;;;;;;34.28;25.33;;;19.20;99.90;;;;;;5060551;28;20067;-73
2022/08/24 05:57:23;;;;;;;27.42;22.48;;;19.10;99.90;;;;;;5059451;28;20033;-72
2022/08/24 05:59:49;;;;;;;28.33;23.00;;;20.00;99.90;;;;;;5045364;28;20044;-73
2022/08/24 06:02:16;;;;;;;24.40;19.88;;;19.30;99.90;;;;;;5056703;28;20044;-73
2022/08/24 06:04:41;;;;;;;28.67;22.48;;;19.70;99.90;;;;;;5057487;28;20083;-73
2022/08/24 06:07:10;;;;;;;34.97;24.08;;;18.60;99.90;;;;;;5065212;28;20045;-72
2022/08/24 06:09:37;;;;;;;29.92;23.73;;;19.60;99.90;;;;;;5054752;28;20068;-72
2022/08/24 06:12:03;;;;;;;29.60;23.00;;;19.90;99.90;;;;;;5040367;28;20048;-72
2022/08/24 06:14:29;;;;;;;29.13;22.42;;;20.00;99.90;;;;;;5058736;28;20085;-70
2022/08/24 06:16:54;;;;;;;27.48;22.65;;;20.60;99.90;;;;;;5062246;28;20040;-71
2022/08/24 06:19:21;;;;;;;29.02;21.20;;;21.30;99.90;;;;;;5068266;28;20112;-72
2022/08/24 06:21:49;;;;;;;30.70;22.67;;;20.90;99.90;;;;;;5056094;28;20072;-72
2022/08/24 06:24:15;;;;;;;32.40;22.05;;;21.00;99.90;;;;;;5040574;28;20132;-72
2022/08/24 06:29:26;;;;;;;28.80;20.83;;;20.90;99.90;;;;;;5053907;28;20128;-72
2022/08/24 06:31:55;;;;;;;25.98;20.10;;;20.60;99.90;;;;;;5060927;28;20120;-71
2022/08/24 06:34:23;;;;;;;26.90;19.20;;;20.50;99.90;;;;;;5054176;28;20122;-71
2022/08/24 06:36:48;;;;;;;27.05;19.48;;;20.60;99.90;;;;;;5054978;28;20510;-71
2022/08/24 06:39:14;;;;;;;31.40;19.83;;;20.80;99.90;;;;;;5053629;28;20116;-71
2022/08/24 06:41:40;;;;;;;21.20;18.85;;;20.70;99.90;;;;;;5036707;28;20049;-71
2022/08/24 06:44:06;;;;;;;25.08;18.70;;;21.90;99.90;;;;;;5054187;28;20490;-70
2022/08/24 06:46:32;;;;;;;25.30;18.73;;;20.90;99.90;;;;;;5054753;28;20037;-71
2022/08/24 06:48:58;;;;;;;27.83;20.65;;;21.10;99.90;;;;;;5036589;28;20170;-71
2022/08/24 06:51:24;;;;;;;24.95;18.40;;;21.10;99.90;;;;;;5053726;28;20091;-71
2022/08/24 06:53:50;;;;;;;26.80;19.02;;;21.30;99.90;;;;;;5036040;28;20044;-71
2022/08/24 06:56:17;;;;;;;21.88;18.50;;;21.20;99.90;;;;;;5053004;28;20040;-71
2022/08/24 06:58:43;;;;;;;21.45;16.23;;;22.40;99.90;;;;;;5054380;28;20033;-71
2022/08/24 07:01:15;;;;;;;24.52;18.50;;;21.30;99.90;;;;;;5054167;28;20291;-71
2022/08/24 07:03:42;;;;;;;23.08;17.13;;;21.40;99.90;;;;;;5036454;28;20041;-72
2022/08/24 07:06:08;;;;;;;23.30;16.25;;;22.50;99.90;;;;;;5052731;28;20491;-72
2022/08/24 07:08:35;;;;;;;25.65;17.42;;;22.90;99.90;;;;;;5054339;28;20033;-71
2022/08/24 07:11:01;;;;;;;23.88;15.90;;;21.80;99.90;;;;;;5054166;28;20033;-71
2022/08/24 07:13:28;;;;;;;20.42;15.43;;;21.80;99.90;;;;;;5052648;28;20040;-71
2022/08/24 07:15:54;;;;;;;21.15;14.32;;;21.90;99.90;;;;;;5052898;28;20525;-72
2022/08/24 07:18:20;;;;;;;18.85;14.95;;;23.20;99.90;;;;;;5062148;28;20093;-76
2022/08/24 07:20:46;;;;;;;17.88;13.80;;;22.30;99.90;;;;;;5067911;28;20025;-72
2022/08/24 07:23:13;;;;;;;18.75;13.07;;;22.20;99.90;;;;;;5062611;28;20064;-72
2022/08/24 07:25:43;;;;;;;18.70;12.80;;;22.80;99.90;;;;;;5041889;28;20037;-72
2022/08/24 07:28:08;;;;;;;18.90;13.13;;;22.50;99.90;;;;;;5043923;28;20045;-72
2022/08/24 07:30:34;;;;;;;19.52;13.63;;;23.00;99.90;;;;;;5042303;28;20036;-72
2022/08/24 07:32:59;;;;;;;19.98;13.05;;;22.70;99.90;;;;;;5039640;28;20029;-72
2022/08/24 07:35:27;;;;;;;16.48;12.02;;;24.00;99.90;;;;;;5052025;28;20070;-72
2022/08/24 07:37:55;;;;;;;20.70;14.07;;;22.90;99.90;;;;;;5052298;28;20040;-72
2022/08/24 07:40:21;;;;;;;19.98;12.95;;;22.90;99.90;;;;;;5052888;28;20491;-71
2022/08/24 07:42:48;;;;;;;18.08;12.95;;;23.00;99.90;;;;;;5053349;28;20029;-72
2022/08/24 07:45:14;;;;;;;16.13;11.73;;;25.40;99.90;;;;;;5051520;28;20029;-72
2022/08/24 07:47:40;;;;;;;16.73;11.65;;;23.40;99.90;;;;;;5051915;28;20036;-72
2022/08/24 07:50:06;;;;;;;13.05;10.82;;;23.40;99.90;;;;;;5053324;28;20032;-72
2022/08/24 07:52:31;;;;;;;12.80;10.15;;;23.50;99.90;;;;;;5050076;28;20091;-72
2022/08/24 07:54:57;;;;;;;16.08;10.13;;;23.60;99.90;;;;;;5038211;28;20045;-72
2022/08/24 07:57:22;;;;;;;17.92;11.23;;;23.70;99.90;;;;;;5031988;28;20037;-72
2022/08/24 07:59:48;;;;;;;15.98;10.30;;;24.90;99.90;;;;;;5037365;28;20530;-71
2022/08/24 08:02:14;;;;;;;10.60;8.45;;;23.70;99.90;;;;;;5051478;28;20064;-72
2022/08/24 08:04:40;;;;;;;9.88;8.43;;;24.00;99.90;;;;;;5048005;28;20517;-72
2022/08/24 08:07:06;;;;;;;12.05;8.30;;;24.00;99.90;;;;;;5051846;28;20551;-72
2022/08/24 08:09:34;;;;;;;9.88;7.05;;;24.00;99.90;;;;;;5051962;28;20036;-71
2022/08/24 08:12:00;;;;;;;13.95;7.60;;;24.20;99.90;;;;;;5032068;28;20049;-72
2022/08/24 08:14:26;;;;;;;11.55;7.20;;;24.20;99.90;;;;;;5054577;23;20047;-73
2022/08/24 08:16:52;;;;;;;11.75;7.03;;;24.40;99.90;;;;;;5034582;28;20032;-73
2022/08/24 08:19:18;;;;;;;7.50;5.38;;;24.30;99.90;;;;;;5051345;28;20125;-73
2022/08/24 08:24:31;;;;;;;9.30;6.55;;;24.60;99.90;;;;;;5051972;28;20045;-73
2022/08/24 08:26:56;;;;;;;6.00;5.40;;;24.50;99.90;;;;;;5051027;28;20051;-74
2022/08/24 08:29:23;;;;;;;10.32;6.30;;;24.60;99.90;;;;;;5051125;28;20037;-73
2022/08/24 08:31:51;;;;;;;9.63;7.45;;;25.50;99.90;;;;;;5033760;28;20045;-73
2022/08/24 08:34:17;;;;;;;6.78;6.03;;;24.80;99.90;;;;;;5041650;28;20414;-73
2022/08/24 08:36:42;;;;;;;9.57;6.47;;;24.70;99.90;;;;;;5040278;28;20067;-72
2022/08/24 08:39:11;;;;;;;10.70;6.00;;;24.70;99.90;;;;;;5041222;28;20495;-72
2022/08/24 08:42:13;;;;;;;11.05;6.32;;;25.00;99.90;;;;;;5016600;28;20124;-72
2022/08/24 08:44:45;;;;;;;7.00;5.00;;;25.00;99.90;;;;;;5034770;28;20263;-72
2022/08/24 08:47:11;;;;;;;9.15;5.60;;;25.00;99.90;;;;;;5043544;28;20047;-72
2022/08/24 08:50:11;;;;;;;6.40;5.75;;;25.10;99.90;;;;;;5037835;28;20033;-72
2022/08/24 08:53:21;;;;;;;12.70;7.72;;;25.40;99.90;;;;;;5040144;28;20503;-73
2022/08/24 08:56:14;;;;;;;7.65;6.07;;;25.30;99.90;;;;;;5046343;28;20514;-72
2022/08/24 08:59:22;;;;;;;8.60;6.50;;;25.30;99.90;;;;;;5030590;28;20072;-73
2022/08/24 09:02:24;;;;;;;9.75;6.80;;;25.30;99.90;;;;;;4957651;28;20130;-73
2022/08/24 09:05:09;;;;;;;8.23;6.55;;;25.60;99.90;;;;;;5031508;28;20033;-72
2022/08/24 09:07:40;;;;;;;9.02;7.47;;;25.70;99.90;;;;;;5041145;28;20042;-73
2022/08/24 09:10:29;;;;;;;7.28;5.65;;;25.50;99.90;;;;;;5039869;28;20037;-72
2022/08/24 09:13:22;;;;;;;11.65;7.00;;;25.70;99.90;;;;;;5041724;28;20084;-73
2022/08/24 09:16:06;;;;;;;10.55;6.57;;;25.90;99.90;;;;;;5038763;28;20496;-73
2022/08/24 09:18:44;;;;;;;10.07;6.63;;;26.00;99.90;;;;;;5040666;28;20044;-72
2022/08/24 09:21:43;;;;;;;12.05;7.55;;;25.80;99.90;;;;;;5040036;28;20064;-72
2022/08/24 09:24:09;;;;;;;8.40;6.88;;;26.00;99.90;;;;;;5034543;28;20049;-71
2022/08/24 09:26:53;;;;;;;10.43;5.88;;;25.90;99.90;;;;;;5032069;28;20033;-72
2022/08/24 09:29:49;;;;;;;6.90;5.75;;;26.20;99.90;;;;;;5040092;28;20037;-72
2022/08/24 09:32:24;;;;;;;8.48;5.60;;;26.10;99.90;;;;;;5038809;28;20061;-71
2022/08/24 09:34:50;;;;;;;7.93;5.18;;;26.30;99.90;;;;;;5040063;28;20511;-72
2022/08/24 09:37:33;;;;;;;10.00;5.03;;;26.90;99.90;;;;;;5047325;28;20080;-73
2022/08/24 09:39:58;;;;;;;;;;;26.20;99.90;;;;;;5041646;28;20048;-72
2022/08/24 09:42:24;;;;;;;9.43;5.55;;;26.30;99.90;;;;;;5050580;28;19982;-73
2022/08/24 09:44:59;;;;;;;7.68;5.45;;;26.50;99.90;;;;;;5038670;28;20438;-72
2022/08/24 09:47:49;;;;;;;6.78;4.38;;;27.10;99.90;;;;;;5032961;28;20033;-72
2022/08/24 09:50:29;;;;;;;10.07;4.65;;;26.50;99.90;;;;;;5042831;28;20083;-72
2022/08/24 09:53:07;;;;;;;6.53;4.25;;;26.70;99.90;;;;;;5034577;28;20048;-73
2022/08/24 09:55:50;;;;;;;5.82;3.92;;;26.70;99.90;;;;;;5039291;28;20514;-71
2022/08/24 09:58:34;;;;;;;8.65;3.72;;;26.90;99.90;;;;;;5040678;28;20033;-74
2022/08/24 10:01:13;;;;;;;6.53;3.75;;;26.90;99.90;;;;;;5040047;28;20081;-72
2022/08/24 10:03:57;;;;;;;6.00;4.03;;;26.90;99.90;;;;;;5038858;28;20083;-72
2022/08/24 10:06:50;;;;;;;7.38;3.88;;;26.90;99.90;;;;;;5036450;28;20411;-72
2022/08/24 10:09:33;;;;;;;4.25;3.75;;;27.00;99.90;;;;;;5032186;28;20159;-72
2022/08/24 10:12:10;;;;;;;3.75;2.65;;;27.20;99.90;;;;;;5031762;28;20504;-73
2022/08/24 10:14:42;;;;;;;6.20;3.85;;;;;;;;;;5050147;28;20151;-72
2022/08/24 10:17:14;;;;;;;6.05;3.17;;;;;;;;;;5049989;28;20140;-73
2022/08/24 10:19:53;;;;;;;6.20;3.97;;;;;;;;;;5049560;28;20055;-72
2022/08/24 10:22:54;;;;;;;5.55;3.55;;;;;;;;;;5048740;28;20048;-73
2022/08/24 10:25:41;;;;;;;6.85;2.80;;;27.30;99.90;;;;;;5048049;28;20076;-73
2022/08/24 10:28:27;;;;;;;5.53;3.78;;;27.30;99.90;;;;;;5036077;28;20068;-75
2022/08/24 10:31:08;;;;;;;5.90;3.08;;;27.40;99.90;;;;;;5038232;28;20120;-72
2022/08/24 10:34:15;;;;;;;3.35;2.42;;;27.40;99.90;;;;;;5033478;28;20056;-72
2022/08/24 10:37:00;;;;;;;5.47;2.85;;;27.50;99.90;;;;;;5049676;28;20124;-72
2022/08/24 10:39:59;;;;;;;7.80;2.92;;;27.80;99.90;;;;;;5012944;28;20056;-73
2022/08/24 10:45:36;;;;;;;4.88;3.45;;;27.70;99.90;;;;;;5042835;28;20045;-72
2022/08/24 10:48:30;;;;;;;5.43;2.58;;;27.70;99.90;;;;;;5042395;28;20044;-72
2022/08/24 10:51:04;;;;;;;3.75;2.35;;;28.00;99.90;;;;;;5032945;28;20292;-73
2022/08/24 10:53:32;;;;;;;5.18;2.03;;;28.10;99.90;;;;;;5032771;28;20084;-73
2022/08/24 10:56:14;;;;;;;5.43;2.72;;;28.00;99.90;;;;;;5029773;28;20566;-73
2022/08/24 10:58:48;;;;;;;;;;;28.20;99.90;;;;;;5018344;28;20045;-73
2022/08/24 11:01:23;;;;;;;4.32;2.90;;;28.10;99.90;;;;;;5031295;28;19921;-73
2022/08/24 11:03:59;;;;;;;5.15;2.30;;;28.20;99.90;;;;;;5030078;28;20041;-73
2022/08/24 11:06:30;;;;;;;6.18;2.10;;;28.20;99.90;;;;;;5011511;28;20036;-75
2022/08/24 11:09:12;;;;;;;6.30;2.55;;;28.40;99.90;;;;;;5031815;28;20454;-73
2022/08/24 11:11:41;;;;;;;4.18;2.55;;;28.20;99.70;;;;;;5042369;28;20403;-73
2022/08/24 11:14:22;;;;;;;5.93;2.55;;;28.40;99.90;;;;;;5046765;28;20041;-71
2022/08/24 11:16:48;;;;;;;3.03;2.72;;;28.70;99.90;;;;;;5050231;28;20049;-74
2022/08/24 11:19:33;;;;;;;5.13;2.80;;;28.40;99.90;;;;;;5070958;28;20051;-74
2022/08/24 11:22:03;;;;;;;5.72;3.20;;;28.60;99.90;;;;;;5072232;28;20036;-75
2022/08/24 11:24:39;;;;;;;8.10;2.50;;;28.90;99.90;;;;;;5070776;28;20425;-73
2022/08/24 11:27:16;;;;;;;4.75;2.60;;;28.70;99.90;;;;;;5052299;28;20052;-74
2022/08/24 11:29:51;;;;;;;5.18;1.88;;;28.70;99.60;;;;;;5042300;28;20097;-74
2022/08/24 11:32:31;;;;;;;2.47;2.05;;;28.60;99.90;;;;;;5072108;28;20044;-74
2022/08/24 11:35:05;;;;;;;6.15;2.67;;;28.80;99.90;;;;;;5054831;28;20051;-74
2022/08/24 11:37:34;;;;;;;7.38;3.20;;;28.80;99.90;;;;;;5071493;28;20043;-73
2022/08/24 11:40:01;;;;;;;6.05;2.90;;;28.60;99.90;;;;;;5072049;28;20048;-74
2022/08/24 11:43:11;;;;;;;4.40;2.53;;;29.30;99.90;;;;;;5065120;28;20037;-74
2022/08/24 11:46:12;;;;;;;4.80;1.67;;;28.90;98.80;;;;;;5001442;28;20049;-74
2022/08/24 11:49:00;;;;;;;3.47;2.25;;;29.30;99.10;;;;;;5015627;28;20083;-74
2022/08/24 11:51:47;;;;;;;3.10;2.08;;;29.00;98.40;;;;;;5031590;28;20046;-74
2022/08/24 11:54:23;;;;;;;3.65;2.45;;;29.00;98.80;;;;;;5032644;28;20052;-74
2022/08/24 11:56:58;;;;;;;6.55;2.40;;;29.30;99.80;;;;;;5031660;28;20045;-74
2022/08/24 11:59:42;;;;;;;3.15;2.25;;;28.80;99.40;;;;;;5031459;28;20136;-73
2022/08/24 12:02:30;;;;;;;3.95;2.40;;;28.70;99.20;;;;;;5031263;28;20499;-73
2022/08/24 12:05:01;;;;;;;4.05;2.33;;;29.80;99.70;;;;;;5030334;28;20116;-74
2022/08/24 12:08:17;;;;;;;4.10;1.70;;;28.80;99.20;;;;;;5061367;28;20045;-74
2022/08/24 12:11:17;;;;;;;2.88;2.20;;;29.00;98.90;;;;;;5027281;28;20513;-74
2022/08/24 12:14:04;;;;;;;2.88;2.00;;;29.50;98.70;;;;;;5064744;28;20057;-71
2022/08/24 12:16:50;;;;;;;7.25;2.75;;;29.10;98.50;;;;;;5070874;28;20052;-75
2022/08/24 12:19:28;;;;;;;4.45;1.83;;;29.10;98.50;;;;;;5041691;28;20041;-74
2022/08/24 12:21:57;;;;;;;2.92;1.70;;;29.10;99.20;;;;;;5025195;28;20394;-74
2022/08/24 12:24:34;;;;;;;4.18;1.67;;;29.30;99.10;;;;;;5040338;28;20073;-75
2022/08/24 12:27:07;;;;;;;5.28;1.20;;;29.50;98.50;;;;;;5031814;28;20029;-74
2022/08/24 12:29:43;;;;;;;5.70;1.15;;;29.60;98.70;;;;;;5032503;28;20045;-74
2022/08/24 12:32:24;;;;;;;2.33;1.27;;;29.80;98.50;;;;;;5032683;28;20041;-74
2022/08/24 12:35:09;;;;;;;2.25;0.98;;;29.70;97.90;;;;;;5030504;28;20668;-74
2022/08/24 12:37:42;;;;;;;2.58;1.17;;;29.50;97.70;;;;;;5031134;28;20151;-74
2022/08/24 12:40:28;;;;;;;;;;;29.50;98.30;;;;;;5031220;28;20045;-74
2022/08/24 12:43:04;;;;;;;1.52;0.90;;;29.30;97.80;;;;;;5030900;28;19924;-73
2022/08/24 12:45:30;;;;;;;2.28;1.13;;;29.50;98.10;;;;;;5046403;28;20377;-74
2022/08/24 12:48:21;;;;;;;1.27;0.80;;;29.00;98.20;;;;;;5022880;28;20040;-75
2022/08/24 12:51:05;;;;;;;1.63;1.00;;;29.30;97.70;;;;;;5029875;28;20427;-74
2022/08/24 12:53:52;;;;;;;1.15;1.02;;;29.20;98.20;;;;;;5025368;28;20041;-75
2022/08/24 12:57:15;;;;;;;1.08;0.98;;;29.40;97.80;;;;;;5040220;28;20117;-75
2022/08/24 12:59:55;;;;;;;1.33;0.60;;;29.40;97.60;;;;;;4967423;28;20129;-74
2022/08/24 13:02:21;;;;;;;0.88;0.70;;;30.00;98.20;;;;;;4954659;28;20464;-75
2022/08/24 13:04:49;;;;;;;0.80;0.65;;;30.10;98.10;;;;;;5012465;28;20049;-75
2022/08/24 13:07:18;;;;;;;0.85;0.52;;;30.10;96.60;;;;;;5057136;28;20436;-74
2022/08/24 13:09:46;;;;;;;1.85;0.55;;;30.70;97.70;;;;;;5051848;28;20064;-74
2022/08/24 13:12:36;;;;;;;1.35;0.60;;;30.20;97.50;;;;;;5029151;28;20095;-74